sensor_id;sensor_type;location;lat;lon;timestamp;P1;durP1;ratioP1;P2;durP2;ratioP2
40503;SDS011;42292;49.048;8.374;2022-12-20T00:01:17;42.35;;;32.17;;
40503;SDS011;42292;49.048;8.374;2022-12-20T00:03:44;45.58;;;33.75;;
40503;SDS011;42292;49.048;8.374;2022-12-20T00:06:14;49.25;;;34.05;;
40503;SDS011;42292;49.048;8.374;2022-12-20T00:08:39;45.00;;;32.57;;
40503;SDS011;42292;49.048;8.374;2022-12-20T00:11:06;47.65;;;33.85;;
40503;SDS011;42292;49.048;8.374;2022-12-20T00:13:35;46.08;;;32.47;;
40503;SDS011;42292;49.048;8.374;2022-12-20T00:16:09;43.90;;;31.70;;
40503;SDS011;42292;49.048;8.374;2022-12-20T00:18:35;42.67;;;30.88;;
40503;SDS011;42292;49.048;8.374;2022-12-20T00:21:07;36.58;;;27.95;;
40503;SDS011;42292;49.048;8.374;2022-12-20T00:23:35;37.72;;;28.45;;
40503;SDS011;42292;49.048;8.374;2022-12-20T00:26:07;33.22;;;26.75;;
40503;SDS011;42292;49.048;8.374;2022-12-20T00:28:37;34.13;;;25.88;;
40503;SDS011;42292;49.048;8.374;2022-12-20T00:31:04;37.30;;;27.93;;
40503;SDS011;42292;49.048;8.374;2022-12-20T00:33:36;36.58;;;27.30;;
40503;SDS011;42292;49.048;8.374;2022-12-20T00:36:03;35.50;;;27.15;;
40503;SDS011;42292;49.048;8.374;2022-12-20T00:38:33;34.37;;;26.00;;
40503;SDS011;42292;49.048;8.374;2022-12-20T00:41:03;33.42;;;25.52;;
40503;SDS011;42292;49.048;8.374;2022-12-20T00:43:36;35.75;;;26.15;;
40503;SDS011;42292;49.048;8.374;2022-12-20T00:46:05;31.77;;;25.52;;
40503;SDS011;42292;49.048;8.374;2022-12-20T00:48:32;34.78;;;26.35;;
40503;SDS011;42292;49.048;8.374;2022-12-20T00:50:59;30.88;;;24.70;;
40503;SDS011;42292;49.048;8.374;2022-12-20T00:53:28;33.65;;;25.60;;
40503;SDS011;42292;49.048;8.374;2022-12-20T00:55:54;32.92;;;25.38;;
40503;SDS011;42292;49.048;8.374;2022-12-20T00:58:21;32.13;;;25.48;;
40503;SDS011;42292;49.048;8.374;2022-12-20T01:00:46;33.85;;;25.65;;
40503;SDS011;42292;49.048;8.374;2022-12-20T01:03:12;32.80;;;26.52;;
40503;SDS011;42292;49.048;8.374;2022-12-20T01:05:38;31.63;;;24.50;;
40503;SDS011;42292;49.048;8.374;2022-12-20T01:08:04;31.70;;;25.48;;
40503;SDS011;42292;49.048;8.374;2022-12-20T01:10:32;32.95;;;25.88;;
40503;SDS011;42292;49.048;8.374;2022-12-20T01:12:58;35.05;;;25.65;;
40503;SDS011;42292;49.048;8.374;2022-12-20T01:15:23;34.03;;;25.58;;
40503;SDS011;42292;49.048;8.374;2022-12-20T01:17:49;30.97;;;24.70;;
40503;SDS011;42292;49.048;8.374;2022-12-20T01:20:15;34.42;;;25.70;;
40503;SDS011;42292;49.048;8.374;2022-12-20T01:22:43;32.75;;;25.70;;
40503;SDS011;42292;49.048;8.374;2022-12-20T01:25:09;35.33;;;26.23;;
40503;SDS011;42292;49.048;8.374;2022-12-20T01:27:35;32.07;;;26.07;;
40503;SDS011;42292;49.048;8.374;2022-12-20T01:30:00;33.20;;;26.27;;
40503;SDS011;42292;49.048;8.374;2022-12-20T01:32:28;31.38;;;24.70;;
40503;SDS011;42292;49.048;8.374;2022-12-20T01:34:53;34.13;;;26.17;;
40503;SDS011;42292;49.048;8.374;2022-12-20T01:37:21;31.27;;;24.73;;
40503;SDS011;42292;49.048;8.374;2022-12-20T01:39:47;32.05;;;25.35;;
40503;SDS011;42292;49.048;8.374;2022-12-20T01:42:13;32.27;;;24.83;;
40503;SDS011;42292;49.048;8.374;2022-12-20T01:47:09;31.80;;;24.42;;
40503;SDS011;42292;49.048;8.374;2022-12-20T01:49:38;33.72;;;26.92;;
40503;SDS011;42292;49.048;8.374;2022-12-20T01:54:38;33.65;;;25.63;;
40503;SDS011;42292;49.048;8.374;2022-12-20T01:57:09;32.97;;;25.93;;
40503;SDS011;42292;49.048;8.374;2022-12-20T01:59:43;32.22;;;25.00;;
40503;SDS011;42292;49.048;8.374;2022-12-20T02:02:16;31.83;;;24.55;;
40503;SDS011;42292;49.048;8.374;2022-12-20T02:04:42;33.80;;;26.13;;
40503;SDS011;42292;49.048;8.374;2022-12-20T02:07:08;32.10;;;25.77;;
40503;SDS011;42292;49.048;8.374;2022-12-20T02:09:39;34.10;;;27.10;;
40503;SDS011;42292;49.048;8.374;2022-12-20T02:12:22;33.27;;;26.70;;
40503;SDS011;42292;49.048;8.374;2022-12-20T02:26:14;32.85;;;25.77;;
40503;SDS011;42292;49.048;8.374;2022-12-20T02:31:32;33.95;;;25.02;;
40503;SDS011;42292;49.048;8.374;2022-12-20T02:34:03;29.02;;;23.45;;
40503;SDS011;42292;49.048;8.374;2022-12-20T02:36:31;29.60;;;23.48;;
40503;SDS011;42292;49.048;8.374;2022-12-20T02:38:56;31.52;;;24.27;;
40503;SDS011;42292;49.048;8.374;2022-12-20T02:41:26;30.20;;;24.20;;
40503;SDS011;42292;49.048;8.374;2022-12-20T02:44:08;31.35;;;25.15;;
40503;SDS011;42292;49.048;8.374;2022-12-20T02:46:56;30.42;;;24.17;;
40503;SDS011;42292;49.048;8.374;2022-12-20T02:49:25;31.05;;;24.88;;
40503;SDS011;42292;49.048;8.374;2022-12-20T02:51:54;31.08;;;24.52;;
40503;SDS011;42292;49.048;8.374;2022-12-20T02:54:26;30.33;;;24.33;;
40503;SDS011;42292;49.048;8.374;2022-12-20T02:56:57;28.63;;;23.63;;
40503;SDS011;42292;49.048;8.374;2022-12-20T02:59:31;29.40;;;22.55;;
40503;SDS011;42292;49.048;8.374;2022-12-20T03:02:05;32.47;;;24.13;;
40503;SDS011;42292;49.048;8.374;2022-12-20T03:04:34;28.48;;;23.38;;
40503;SDS011;42292;49.048;8.374;2022-12-20T03:09:34;35.58;;;25.77;;
40503;SDS011;42292;49.048;8.374;2022-12-20T03:12:07;32.25;;;24.30;;
40503;SDS011;42292;49.048;8.374;2022-12-20T03:14:35;37.85;;;26.05;;
40503;SDS011;42292;49.048;8.374;2022-12-20T03:17:01;37.20;;;25.08;;
40503;SDS011;42292;49.048;8.374;2022-12-20T03:19:28;37.00;;;24.77;;
40503;SDS011;42292;49.048;8.374;2022-12-20T03:21:59;34.78;;;25.15;;
40503;SDS011;42292;49.048;8.374;2022-12-20T03:24:24;32.92;;;25.15;;
40503;SDS011;42292;49.048;8.374;2022-12-20T03:26:50;35.72;;;26.33;;
40503;SDS011;42292;49.048;8.374;2022-12-20T03:29:16;34.10;;;26.50;;
40503;SDS011;42292;49.048;8.374;2022-12-20T03:31:42;32.50;;;24.70;;
40503;SDS011;42292;49.048;8.374;2022-12-20T03:34:10;31.77;;;24.10;;
40503;SDS011;42292;49.048;8.374;2022-12-20T03:36:35;28.63;;;23.33;;
40503;SDS011;42292;49.048;8.374;2022-12-20T03:39:01;29.58;;;23.65;;
40503;SDS011;42292;49.048;8.374;2022-12-20T03:41:29;29.95;;;23.48;;
40503;SDS011;42292;49.048;8.374;2022-12-20T03:43:57;31.58;;;23.90;;
40503;SDS011;42292;49.048;8.374;2022-12-20T03:46:22;33.97;;;24.00;;
40503;SDS011;42292;49.048;8.374;2022-12-20T03:48:51;33.55;;;24.55;;
40503;SDS011;42292;49.048;8.374;2022-12-20T03:51:17;31.98;;;24.33;;
40503;SDS011;42292;49.048;8.374;2022-12-20T03:53:43;31.53;;;24.13;;
40503;SDS011;42292;49.048;8.374;2022-12-20T03:56:09;29.40;;;23.30;;
40503;SDS011;42292;49.048;8.374;2022-12-20T03:58:34;29.07;;;22.30;;
40503;SDS011;42292;49.048;8.374;2022-12-20T04:01:14;28.50;;;22.77;;
40503;SDS011;42292;49.048;8.374;2022-12-20T04:03:45;30.38;;;23.85;;
40503;SDS011;42292;49.048;8.374;2022-12-20T04:06:11;33.50;;;25.63;;
40503;SDS011;42292;49.048;8.374;2022-12-20T04:08:39;31.90;;;25.92;;
40503;SDS011;42292;49.048;8.374;2022-12-20T04:11:04;33.97;;;26.52;;
40503;SDS011;42292;49.048;8.374;2022-12-20T04:13:45;31.80;;;24.83;;
40503;SDS011;42292;49.048;8.374;2022-12-20T04:16:13;30.42;;;23.95;;
40503;SDS011;42292;49.048;8.374;2022-12-20T04:18:40;32.72;;;25.08;;
40503;SDS011;42292;49.048;8.374;2022-12-20T04:21:08;33.63;;;26.00;;
40503;SDS011;42292;49.048;8.374;2022-12-20T04:23:36;31.23;;;25.02;;
40503;SDS011;42292;49.048;8.374;2022-12-20T04:26:04;30.60;;;23.65;;
40503;SDS011;42292;49.048;8.374;2022-12-20T04:28:33;31.08;;;24.95;;
40503;SDS011;42292;49.048;8.374;2022-12-20T04:31:01;33.25;;;25.05;;
40503;SDS011;42292;49.048;8.374;2022-12-20T04:33:29;32.60;;;25.70;;
40503;SDS011;42292;49.048;8.374;2022-12-20T04:35:55;34.78;;;27.52;;
40503;SDS011;42292;49.048;8.374;2022-12-20T04:38:23;37.13;;;28.67;;
40503;SDS011;42292;49.048;8.374;2022-12-20T04:40:50;36.88;;;28.92;;
40503;SDS011;42292;49.048;8.374;2022-12-20T04:43:19;37.63;;;28.33;;
40503;SDS011;42292;49.048;8.374;2022-12-20T04:45:47;37.40;;;29.48;;
40503;SDS011;42292;49.048;8.374;2022-12-20T04:48:14;42.38;;;29.60;;
40503;SDS011;42292;49.048;8.374;2022-12-20T04:50:46;38.88;;;28.60;;
40503;SDS011;42292;49.048;8.374;2022-12-20T04:53:13;39.85;;;29.08;;
40503;SDS011;42292;49.048;8.374;2022-12-20T04:56:00;36.53;;;28.98;;
40503;SDS011;42292;49.048;8.374;2022-12-20T04:58:26;39.30;;;28.42;;
40503;SDS011;42292;49.048;8.374;2022-12-20T05:00:54;35.72;;;28.20;;
40503;SDS011;42292;49.048;8.374;2022-12-20T05:03:22;31.83;;;26.40;;
40503;SDS011;42292;49.048;8.374;2022-12-20T05:05:49;34.60;;;26.58;;
40503;SDS011;42292;49.048;8.374;2022-12-20T05:08:15;31.00;;;23.95;;
40503;SDS011;42292;49.048;8.374;2022-12-20T05:10:43;29.55;;;24.15;;
40503;SDS011;42292;49.048;8.374;2022-12-20T05:13:12;30.02;;;24.10;;
40503;SDS011;42292;49.048;8.374;2022-12-20T05:15:40;29.98;;;23.88;;
40503;SDS011;42292;49.048;8.374;2022-12-20T05:18:06;28.95;;;23.52;;
40503;SDS011;42292;49.048;8.374;2022-12-20T05:20:32;29.27;;;23.80;;
40503;SDS011;42292;49.048;8.374;2022-12-20T05:23:00;29.88;;;24.33;;
40503;SDS011;42292;49.048;8.374;2022-12-20T05:25:48;30.37;;;24.00;;
40503;SDS011;42292;49.048;8.374;2022-12-20T05:28:14;27.75;;;22.92;;
40503;SDS011;42292;49.048;8.374;2022-12-20T05:30:40;33.20;;;24.37;;
40503;SDS011;42292;49.048;8.374;2022-12-20T05:33:05;34.42;;;25.88;;
40503;SDS011;42292;49.048;8.374;2022-12-20T05:35:31;31.73;;;25.40;;
40503;SDS011;42292;49.048;8.374;2022-12-20T05:37:56;30.23;;;24.07;;
40503;SDS011;42292;49.048;8.374;2022-12-20T05:40:25;30.52;;;24.00;;
40503;SDS011;42292;49.048;8.374;2022-12-20T05:42:50;27.17;;;22.30;;
40503;SDS011;42292;49.048;8.374;2022-12-20T05:45:16;32.50;;;24.63;;
40503;SDS011;42292;49.048;8.374;2022-12-20T05:47:46;30.90;;;24.77;;
40503;SDS011;42292;49.048;8.374;2022-12-20T05:50:11;32.37;;;25.77;;
40503;SDS011;42292;49.048;8.374;2022-12-20T05:52:41;32.40;;;25.30;;
40503;SDS011;42292;49.048;8.374;2022-12-20T05:55:06;32.73;;;25.70;;
40503;SDS011;42292;49.048;8.374;2022-12-20T05:57:32;38.35;;;26.63;;
40503;SDS011;42292;49.048;8.374;2022-12-20T05:59:58;32.07;;;25.13;;
40503;SDS011;42292;49.048;8.374;2022-12-20T06:02:24;31.75;;;25.55;;
40503;SDS011;42292;49.048;8.374;2022-12-20T06:04:49;31.55;;;26.23;;
40503;SDS011;42292;49.048;8.374;2022-12-20T06:07:15;33.57;;;26.20;;
40503;SDS011;42292;49.048;8.374;2022-12-20T06:09:45;38.22;;;27.35;;
40503;SDS011;42292;49.048;8.374;2022-12-20T06:12:15;36.35;;;27.55;;
40503;SDS011;42292;49.048;8.374;2022-12-20T06:14:41;35.45;;;27.00;;
40503;SDS011;42292;49.048;8.374;2022-12-20T06:17:07;37.77;;;28.23;;
40503;SDS011;42292;49.048;8.374;2022-12-20T06:19:35;36.97;;;28.20;;
40503;SDS011;42292;49.048;8.374;2022-12-20T06:22:00;33.40;;;26.88;;
40503;SDS011;42292;49.048;8.374;2022-12-20T06:24:26;32.70;;;25.90;;
40503;SDS011;42292;49.048;8.374;2022-12-20T06:26:54;31.33;;;24.73;;
40503;SDS011;42292;49.048;8.374;2022-12-20T06:29:19;33.80;;;25.80;;
40503;SDS011;42292;49.048;8.374;2022-12-20T06:31:45;33.17;;;26.17;;
40503;SDS011;42292;49.048;8.374;2022-12-20T06:34:12;33.92;;;26.30;;
40503;SDS011;42292;49.048;8.374;2022-12-20T06:36:37;35.33;;;26.00;;
40503;SDS011;42292;49.048;8.374;2022-12-20T06:39:03;33.30;;;26.52;;
40503;SDS011;42292;49.048;8.374;2022-12-20T06:41:29;32.40;;;25.80;;
40503;SDS011;42292;49.048;8.374;2022-12-20T06:43:57;32.83;;;26.17;;
40503;SDS011;42292;49.048;8.374;2022-12-20T06:46:24;32.85;;;25.63;;
40503;SDS011;42292;49.048;8.374;2022-12-20T06:48:51;33.72;;;25.40;;
40503;SDS011;42292;49.048;8.374;2022-12-20T06:51:17;30.02;;;22.75;;
40503;SDS011;42292;49.048;8.374;2022-12-20T06:53:43;26.13;;;22.63;;
40503;SDS011;42292;49.048;8.374;2022-12-20T06:56:10;31.40;;;23.45;;
40503;SDS011;42292;49.048;8.374;2022-12-20T06:58:36;30.80;;;24.20;;
40503;SDS011;42292;49.048;8.374;2022-12-20T07:01:04;29.08;;;23.45;;
40503;SDS011;42292;49.048;8.374;2022-12-20T07:03:30;29.63;;;23.30;;
40503;SDS011;42292;49.048;8.374;2022-12-20T07:05:57;27.20;;;22.10;;
40503;SDS011;42292;49.048;8.374;2022-12-20T07:08:25;26.90;;;22.40;;
40503;SDS011;42292;49.048;8.374;2022-12-20T07:10:51;28.92;;;22.75;;
40503;SDS011;42292;49.048;8.374;2022-12-20T07:13:18;27.48;;;21.88;;
40503;SDS011;42292;49.048;8.374;2022-12-20T07:15:46;26.85;;;20.50;;
40503;SDS011;42292;49.048;8.374;2022-12-20T07:18:23;29.25;;;21.85;;
40503;SDS011;42292;49.048;8.374;2022-12-20T07:20:49;25.95;;;20.80;;
40503;SDS011;42292;49.048;8.374;2022-12-20T07:23:14;29.17;;;21.97;;
40503;SDS011;42292;49.048;8.374;2022-12-20T07:25:40;33.00;;;23.85;;
40503;SDS011;42292;49.048;8.374;2022-12-20T07:28:05;28.27;;;22.93;;
40503;SDS011;42292;49.048;8.374;2022-12-20T07:30:31;29.43;;;23.23;;
40503;SDS011;42292;49.048;8.374;2022-12-20T07:32:57;28.88;;;23.50;;
40503;SDS011;42292;49.048;8.374;2022-12-20T07:35:22;27.00;;;21.57;;
40503;SDS011;42292;49.048;8.374;2022-12-20T07:37:48;30.00;;;22.17;;
40503;SDS011;42292;49.048;8.374;2022-12-20T07:40:13;29.87;;;23.57;;
40503;SDS011;42292;49.048;8.374;2022-12-20T07:42:40;30.35;;;23.42;;
40503;SDS011;42292;49.048;8.374;2022-12-20T07:45:06;31.60;;;24.23;;
40503;SDS011;42292;49.048;8.374;2022-12-20T07:47:32;28.67;;;21.93;;
40503;SDS011;42292;49.048;8.374;2022-12-20T07:49:59;26.40;;;22.02;;
40503;SDS011;42292;49.048;8.374;2022-12-20T07:52:25;26.80;;;21.10;;
40503;SDS011;42292;49.048;8.374;2022-12-20T07:54:57;26.97;;;20.50;;
40503;SDS011;42292;49.048;8.374;2022-12-20T07:57:31;24.58;;;19.75;;
40503;SDS011;42292;49.048;8.374;2022-12-20T07:59:59;26.58;;;20.92;;
40503;SDS011;42292;49.048;8.374;2022-12-20T08:02:31;24.83;;;20.05;;
40503;SDS011;42292;49.048;8.374;2022-12-20T08:05:05;27.52;;;19.17;;
40503;SDS011;42292;49.048;8.374;2022-12-20T08:07:33;28.23;;;21.23;;
40503;SDS011;42292;49.048;8.374;2022-12-20T08:10:06;24.40;;;19.50;;
40503;SDS011;42292;49.048;8.374;2022-12-20T08:12:35;25.02;;;19.85;;
40503;SDS011;42292;49.048;8.374;2022-12-20T08:15:01;29.65;;;21.65;;
40503;SDS011;42292;49.048;8.374;2022-12-20T08:17:29;30.70;;;23.15;;
40503;SDS011;42292;49.048;8.374;2022-12-20T08:19:55;28.50;;;22.07;;
40503;SDS011;42292;49.048;8.374;2022-12-20T08:22:21;25.60;;;19.85;;
40503;SDS011;42292;49.048;8.374;2022-12-20T08:24:49;27.92;;;20.17;;
40503;SDS011;42292;49.048;8.374;2022-12-20T08:27:17;26.13;;;18.65;;
40503;SDS011;42292;49.048;8.374;2022-12-20T08:29:43;27.25;;;21.02;;
40503;SDS011;42292;49.048;8.374;2022-12-20T08:32:11;30.20;;;23.65;;
40503;SDS011;42292;49.048;8.374;2022-12-20T08:34:40;33.50;;;24.10;;
40503;SDS011;42292;49.048;8.374;2022-12-20T08:37:05;35.93;;;24.60;;
40503;SDS011;42292;49.048;8.374;2022-12-20T08:39:31;29.05;;;21.85;;
40503;SDS011;42292;49.048;8.374;2022-12-20T08:41:57;29.73;;;22.47;;
40503;SDS011;42292;49.048;8.374;2022-12-20T08:44:22;27.67;;;20.63;;
40503;SDS011;42292;49.048;8.374;2022-12-20T08:46:48;27.60;;;21.08;;
40503;SDS011;42292;49.048;8.374;2022-12-20T08:49:13;25.70;;;20.07;;
40503;SDS011;42292;49.048;8.374;2022-12-20T08:51:41;24.58;;;19.17;;
40503;SDS011;42292;49.048;8.374;2022-12-20T08:54:09;25.88;;;20.08;;
40503;SDS011;42292;49.048;8.374;2022-12-20T08:56:34;27.40;;;20.73;;
40503;SDS011;42292;49.048;8.374;2022-12-20T08:59:00;25.20;;;19.75;;
40503;SDS011;42292;49.048;8.374;2022-12-20T09:01:26;26.67;;;20.10;;
40503;SDS011;42292;49.048;8.374;2022-12-20T09:03:56;24.95;;;19.63;;
40503;SDS011;42292;49.048;8.374;2022-12-20T09:06:24;25.58;;;20.25;;
40503;SDS011;42292;49.048;8.374;2022-12-20T09:08:50;23.60;;;18.47;;
40503;SDS011;42292;49.048;8.374;2022-12-20T09:11:19;23.38;;;18.70;;
40503;SDS011;42292;49.048;8.374;2022-12-20T09:13:49;27.13;;;19.20;;
40503;SDS011;42292;49.048;8.374;2022-12-20T09:16:17;22.33;;;17.42;;
40503;SDS011;42292;49.048;8.374;2022-12-20T09:18:48;24.90;;;19.25;;
40503;SDS011;42292;49.048;8.374;2022-12-20T09:21:16;26.45;;;19.30;;
40503;SDS011;42292;49.048;8.374;2022-12-20T09:23:43;23.67;;;17.73;;
40503;SDS011;42292;49.048;8.374;2022-12-20T09:26:13;23.67;;;16.77;;
40503;SDS011;42292;49.048;8.374;2022-12-20T09:28:44;22.83;;;17.38;;
40503;SDS011;42292;49.048;8.374;2022-12-20T09:31:14;24.30;;;18.45;;
40503;SDS011;42292;49.048;8.374;2022-12-20T09:33:44;23.55;;;16.90;;
40503;SDS011;42292;49.048;8.374;2022-12-20T09:36:11;25.98;;;18.40;;
40503;SDS011;42292;49.048;8.374;2022-12-20T09:38:41;23.43;;;18.33;;
40503;SDS011;42292;49.048;8.374;2022-12-20T09:46:54;22.08;;;17.35;;
40503;SDS011;42292;49.048;8.374;2022-12-20T09:49:30;24.20;;;16.77;;
40503;SDS011;42292;49.048;8.374;2022-12-20T09:59:59;21.40;;;16.80;;
40503;SDS011;42292;49.048;8.374;2022-12-20T10:02:28;19.20;;;15.65;;
40503;SDS011;42292;49.048;8.374;2022-12-20T10:04:56;20.40;;;15.43;;
40503;SDS011;42292;49.048;8.374;2022-12-20T10:07:37;20.30;;;14.95;;
40503;SDS011;42292;49.048;8.374;2022-12-20T10:16:23;18.20;;;14.90;;
40503;SDS011;42292;49.048;8.374;2022-12-20T10:19:04;20.77;;;14.98;;
40503;SDS011;42292;49.048;8.374;2022-12-20T10:24:31;20.85;;;15.00;;
40503;SDS011;42292;49.048;8.374;2022-12-20T10:27:18;18.80;;;14.67;;
40503;SDS011;42292;49.048;8.374;2022-12-20T10:29:45;19.27;;;14.52;;
40503;SDS011;42292;49.048;8.374;2022-12-20T10:32:17;18.15;;;14.50;;
40503;SDS011;42292;49.048;8.374;2022-12-20T10:34:51;21.63;;;14.52;;
40503;SDS011;42292;49.048;8.374;2022-12-20T10:37:57;19.75;;;14.68;;
40503;SDS011;42292;49.048;8.374;2022-12-20T10:40:26;19.38;;;13.70;;
40503;SDS011;42292;49.048;8.374;2022-12-20T10:43:03;21.65;;;14.77;;
40503;SDS011;42292;49.048;8.374;2022-12-20T10:45:38;16.33;;;13.20;;
40503;SDS011;42292;49.048;8.374;2022-12-20T10:48:21;16.90;;;12.57;;
40503;SDS011;42292;49.048;8.374;2022-12-20T10:53:58;16.55;;;13.00;;
40503;SDS011;42292;49.048;8.374;2022-12-20T11:01:30;19.00;;;14.43;;
40503;SDS011;42292;49.048;8.374;2022-12-20T11:06:45;23.30;;;16.00;;
40503;SDS011;42292;49.048;8.374;2022-12-20T11:14:28;19.75;;;15.82;;
40503;SDS011;42292;49.048;8.374;2022-12-20T11:16:56;18.20;;;13.82;;
40503;SDS011;42292;49.048;8.374;2022-12-20T11:25:16;16.48;;;12.73;;
40503;SDS011;42292;49.048;8.374;2022-12-20T11:33:45;18.67;;;13.65;;
40503;SDS011;42292;49.048;8.374;2022-12-20T11:41:49;19.17;;;14.90;;
40503;SDS011;42292;49.048;8.374;2022-12-20T11:52:49;20.02;;;14.52;;
40503;SDS011;42292;49.048;8.374;2022-12-20T11:55:32;19.02;;;14.90;;
40503;SDS011;42292;49.048;8.374;2022-12-20T11:58:04;17.63;;;14.55;;
40503;SDS011;42292;49.048;8.374;2022-12-20T12:00:32;21.70;;;16.15;;
40503;SDS011;42292;49.048;8.374;2022-12-20T12:03:04;22.83;;;15.90;;
40503;SDS011;42292;49.048;8.374;2022-12-20T12:05:52;22.40;;;17.13;;
40503;SDS011;42292;49.048;8.374;2022-12-20T12:11:18;20.45;;;16.33;;
40503;SDS011;42292;49.048;8.374;2022-12-20T12:13:51;18.48;;;16.15;;
40503;SDS011;42292;49.048;8.374;2022-12-20T12:18:49;18.23;;;15.75;;
40503;SDS011;42292;49.048;8.374;2022-12-20T12:21:23;21.45;;;16.58;;
40503;SDS011;42292;49.048;8.374;2022-12-20T12:26:32;22.83;;;16.85;;
40503;SDS011;42292;49.048;8.374;2022-12-20T12:50:46;21.02;;;16.88;;
40503;SDS011;42292;49.048;8.374;2022-12-20T12:55:58;19.53;;;14.63;;
40503;SDS011;42292;49.048;8.374;2022-12-20T13:11:50;16.23;;;13.67;;
40503;SDS011;42292;49.048;8.374;2022-12-20T13:19:33;19.60;;;15.02;;
40503;SDS011;42292;49.048;8.374;2022-12-20T13:30:14;26.67;;;20.00;;
40503;SDS011;42292;49.048;8.374;2022-12-20T13:40:22;20.48;;;15.52;;
40503;SDS011;42292;49.048;8.374;2022-12-20T13:43:01;21.70;;;16.17;;
40503;SDS011;42292;49.048;8.374;2022-12-20T13:45:34;22.67;;;16.83;;
40503;SDS011;42292;49.048;8.374;2022-12-20T13:48:02;21.67;;;17.10;;
40503;SDS011;42292;49.048;8.374;2022-12-20T13:50:31;19.85;;;15.95;;
40503;SDS011;42292;49.048;8.374;2022-12-20T13:53:06;22.92;;;18.05;;
40503;SDS011;42292;49.048;8.374;2022-12-20T13:55:44;25.52;;;18.05;;
40503;SDS011;42292;49.048;8.374;2022-12-20T13:58:15;22.65;;;17.02;;
40503;SDS011;42292;49.048;8.374;2022-12-20T14:00:43;21.45;;;16.10;;
40503;SDS011;42292;49.048;8.374;2022-12-20T14:03:17;20.17;;;16.75;;
40503;SDS011;42292;49.048;8.374;2022-12-20T14:05:49;23.13;;;16.65;;
40503;SDS011;42292;49.048;8.374;2022-12-20T14:08:21;18.33;;;14.63;;
40503;SDS011;42292;49.048;8.374;2022-12-20T14:11:06;19.48;;;13.32;;
40503;SDS011;42292;49.048;8.374;2022-12-20T14:13:41;18.90;;;14.32;;
40503;SDS011;42292;49.048;8.374;2022-12-20T14:16:13;20.23;;;15.20;;
40503;SDS011;42292;49.048;8.374;2022-12-20T14:18:40;18.60;;;13.95;;
40503;SDS011;42292;49.048;8.374;2022-12-20T14:21:06;19.73;;;14.90;;
40503;SDS011;42292;49.048;8.374;2022-12-20T14:26:10;17.77;;;13.50;;
40503;SDS011;42292;49.048;8.374;2022-12-20T14:28:41;15.77;;;12.98;;
40503;SDS011;42292;49.048;8.374;2022-12-20T14:34:11;20.15;;;14.30;;
40503;SDS011;42292;49.048;8.374;2022-12-20T14:36:44;22.20;;;15.00;;
40503;SDS011;42292;49.048;8.374;2022-12-20T14:44:28;17.70;;;14.60;;
40503;SDS011;42292;49.048;8.374;2022-12-20T14:46:56;19.80;;;14.60;;
40503;SDS011;42292;49.048;8.374;2022-12-20T14:49:33;17.63;;;13.90;;
40503;SDS011;42292;49.048;8.374;2022-12-20T15:13:41;26.15;;;19.92;;
40503;SDS011;42292;49.048;8.374;2022-12-20T15:16:25;19.38;;;15.82;;
40503;SDS011;42292;49.048;8.374;2022-12-20T15:18:59;23.58;;;18.10;;
40503;SDS011;42292;49.048;8.374;2022-12-20T15:23:58;25.43;;;18.53;;
40503;SDS011;42292;49.048;8.374;2022-12-20T15:26:26;22.67;;;17.27;;
40503;SDS011;42292;49.048;8.374;2022-12-20T15:28:55;23.77;;;17.92;;
40503;SDS011;42292;49.048;8.374;2022-12-20T15:31:24;22.45;;;17.10;;
40503;SDS011;42292;49.048;8.374;2022-12-20T15:33:52;25.45;;;18.45;;
40503;SDS011;42292;49.048;8.374;2022-12-20T15:36:25;25.50;;;19.40;;
40503;SDS011;42292;49.048;8.374;2022-12-20T15:38:54;23.73;;;18.33;;
40503;SDS011;42292;49.048;8.374;2022-12-20T15:41:28;24.02;;;18.85;;
40503;SDS011;42292;49.048;8.374;2022-12-20T15:43:58;23.15;;;18.08;;
40503;SDS011;42292;49.048;8.374;2022-12-20T15:46:29;25.73;;;18.17;;
40503;SDS011;42292;49.048;8.374;2022-12-20T15:48:55;25.52;;;19.10;;
40503;SDS011;42292;49.048;8.374;2022-12-20T15:51:29;23.80;;;18.23;;
40503;SDS011;42292;49.048;8.374;2022-12-20T15:53:57;22.90;;;17.25;;
40503;SDS011;42292;49.048;8.374;2022-12-20T15:56:29;22.90;;;16.65;;
40503;SDS011;42292;49.048;8.374;2022-12-20T15:58:56;23.23;;;17.90;;
40503;SDS011;42292;49.048;8.374;2022-12-20T16:01:33;24.70;;;17.73;;
40503;SDS011;42292;49.048;8.374;2022-12-20T16:04:04;24.52;;;17.15;;
40503;SDS011;42292;49.048;8.374;2022-12-20T16:06:32;28.75;;;17.90;;
40503;SDS011;42292;49.048;8.374;2022-12-20T16:08:58;21.77;;;16.60;;
40503;SDS011;42292;49.048;8.374;2022-12-20T16:13:55;23.45;;;16.88;;
40503;SDS011;42292;49.048;8.374;2022-12-20T16:16:22;26.45;;;17.02;;
40503;SDS011;42292;49.048;8.374;2022-12-20T16:18:52;27.55;;;17.45;;
40503;SDS011;42292;49.048;8.374;2022-12-20T16:21:19;22.63;;;17.53;;
40503;SDS011;42292;49.048;8.374;2022-12-20T16:23:45;28.30;;;22.52;;
40503;SDS011;42292;49.048;8.374;2022-12-20T16:26:17;33.22;;;23.52;;
40503;SDS011;42292;49.048;8.374;2022-12-20T16:28:45;43.50;;;31.90;;
40503;SDS011;42292;49.048;8.374;2022-12-20T16:33:56;29.05;;;22.33;;
40503;SDS011;42292;49.048;8.374;2022-12-20T16:36:23;25.92;;;19.77;;
40503;SDS011;42292;49.048;8.374;2022-12-20T16:38:49;22.00;;;17.33;;
40503;SDS011;42292;49.048;8.374;2022-12-20T16:41:19;23.55;;;18.60;;
40503;SDS011;42292;49.048;8.374;2022-12-20T16:43:49;23.83;;;17.90;;
40503;SDS011;42292;49.048;8.374;2022-12-20T16:46:17;23.02;;;17.10;;
40503;SDS011;42292;49.048;8.374;2022-12-20T16:48:44;20.60;;;15.82;;
40503;SDS011;42292;49.048;8.374;2022-12-20T16:56:24;23.92;;;17.38;;
40503;SDS011;42292;49.048;8.374;2022-12-20T16:58:50;19.05;;;15.95;;
40503;SDS011;42292;49.048;8.374;2022-12-20T17:01:17;21.02;;;17.67;;
40503;SDS011;42292;49.048;8.374;2022-12-20T17:03:44;20.98;;;16.60;;
40503;SDS011;42292;49.048;8.374;2022-12-20T17:06:11;24.95;;;15.93;;
40503;SDS011;42292;49.048;8.374;2022-12-20T17:08:38;23.85;;;15.30;;
40503;SDS011;42292;49.048;8.374;2022-12-20T17:11:17;19.47;;;15.07;;
40503;SDS011;42292;49.048;8.374;2022-12-20T17:13:43;19.20;;;14.63;;
40503;SDS011;42292;49.048;8.374;2022-12-20T17:16:10;17.75;;;13.98;;
40503;SDS011;42292;49.048;8.374;2022-12-20T17:18:42;19.55;;;14.13;;
40503;SDS011;42292;49.048;8.374;2022-12-20T17:21:17;17.70;;;14.30;;
40503;SDS011;42292;49.048;8.374;2022-12-20T17:23:50;18.33;;;14.68;;
40503;SDS011;42292;49.048;8.374;2022-12-20T17:26:18;22.13;;;16.83;;
40503;SDS011;42292;49.048;8.374;2022-12-20T17:28:47;21.33;;;15.70;;
40503;SDS011;42292;49.048;8.374;2022-12-20T17:33:44;25.10;;;17.23;;
40503;SDS011;42292;49.048;8.374;2022-12-20T17:36:09;22.07;;;16.60;;
40503;SDS011;42292;49.048;8.374;2022-12-20T17:38:37;21.23;;;15.77;;
40503;SDS011;42292;49.048;8.374;2022-12-20T17:41:09;21.83;;;15.75;;
40503;SDS011;42292;49.048;8.374;2022-12-20T17:43:47;25.55;;;17.75;;
40503;SDS011;42292;49.048;8.374;2022-12-20T17:46:13;22.95;;;16.75;;
40503;SDS011;42292;49.048;8.374;2022-12-20T17:48:39;22.50;;;16.70;;
40503;SDS011;42292;49.048;8.374;2022-12-20T17:51:09;21.83;;;16.13;;
40503;SDS011;42292;49.048;8.374;2022-12-20T17:53:41;27.55;;;17.45;;